sensor_id;sensor_type;location;lat;lon;timestamp;P1;durP1;ratioP1;P2;durP2;ratioP2
44446;SDS011;30152;52.066;5.358;2022-08-30T06:04:27;11.63;;;8.57;;
44446;SDS011;30152;52.066;5.358;2022-08-30T06:06:53;14.15;;;8.35;;
44446;SDS011;30152;52.066;5.358;2022-08-30T06:09:19;12.02;;;7.65;;
44446;SDS011;30152;52.066;5.358;2022-08-30T06:11:45;14.05;;;9.10;;
44446;SDS011;30152;52.066;5.358;2022-08-30T06:14:12;11.23;;;8.05;;
44446;SDS011;30152;52.066;5.358;2022-08-30T06:16:38;10.93;;;7.82;;
44446;SDS011;30152;52.066;5.358;2022-08-30T06:19:05;12.52;;;7.85;;
44446;SDS011;30152;52.066;5.358;2022-08-30T06:21:36;12.27;;;8.48;;
44446;SDS011;30152;52.066;5.358;2022-08-30T06:24:03;13.75;;;8.55;;
44446;SDS011;30152;52.066;5.358;2022-08-30T06:26:30;15.32;;;10.00;;
44446;SDS011;30152;52.066;5.358;2022-08-30T06:28:56;14.10;;;9.10;;
44446;SDS011;30152;52.066;5.358;2022-08-30T06:31:23;14.73;;;9.63;;
44446;SDS011;30152;52.066;5.358;2022-08-30T06:33:49;17.58;;;10.18;;
44446;SDS011;30152;52.066;5.358;2022-08-30T06:36:17;14.95;;;9.73;;
44446;SDS011;30152;52.066;5.358;2022-08-30T06:38:44;18.38;;;10.70;;
44446;SDS011;30152;52.066;5.358;2022-08-30T06:41:11;15.50;;;10.55;;
44446;SDS011;30152;52.066;5.358;2022-08-30T06:43:38;16.48;;;10.18;;
44446;SDS011;30152;52.066;5.358;2022-08-30T06:46:04;15.98;;;9.90;;
44446;SDS011;30152;52.066;5.358;2022-08-30T06:48:31;17.25;;;10.75;;
44446;SDS011;30152;52.066;5.358;2022-08-30T06:50:57;14.40;;;10.45;;
44446;SDS011;30152;52.066;5.358;2022-08-30T06:53:23;13.75;;;9.25;;
44446;SDS011;30152;52.066;5.358;2022-08-30T06:55:59;16.13;;;10.73;;
44446;SDS011;30152;52.066;5.358;2022-08-30T06:58:26;14.07;;;10.10;;
44446;SDS011;30152;52.066;5.358;2022-08-30T07:00:53;16.63;;;10.00;;
44446;SDS011;30152;52.066;5.358;2022-08-30T07:03:19;12.85;;;9.40;;
44446;SDS011;30152;52.066;5.358;2022-08-30T07:05:48;12.68;;;8.45;;
44446;SDS011;30152;52.066;5.358;2022-08-30T07:08:15;12.35;;;8.52;;
44446;SDS011;30152;52.066;5.358;2022-08-30T07:10:41;11.13;;;8.40;;
44446;SDS011;30152;52.066;5.358;2022-08-30T07:13:07;12.48;;;7.18;;
44446;SDS011;30152;52.066;5.358;2022-08-30T07:15:33;12.52;;;7.18;;
44446;SDS011;30152;52.066;5.358;2022-08-30T07:17:59;9.32;;;6.85;;
44446;SDS011;30152;52.066;5.358;2022-08-30T07:20:44;10.07;;;6.40;;
44446;SDS011;30152;52.066;5.358;2022-08-30T07:23:10;12.20;;;6.03;;
44446;SDS011;30152;52.066;5.358;2022-08-30T07:25:37;11.82;;;5.63;;
44446;SDS011;30152;52.066;5.358;2022-08-30T07:28:04;10.73;;;5.65;;
44446;SDS011;30152;52.066;5.358;2022-08-30T07:30:30;8.65;;;4.72;;
44446;SDS011;30152;52.066;5.358;2022-08-30T07:32:56;9.98;;;4.72;;
44446;SDS011;30152;52.066;5.358;2022-08-30T07:35:22;8.55;;;4.22;;
44446;SDS011;30152;52.066;5.358;2022-08-30T07:37:49;8.05;;;4.10;;
44446;SDS011;30152;52.066;5.358;2022-08-30T07:40:15;10.75;;;3.50;;
44446;SDS011;30152;52.066;5.358;2022-08-30T07:42:41;8.07;;;3.92;;
44446;SDS011;30152;52.066;5.358;2022-08-30T07:45:07;7.05;;;2.33;;
44446;SDS011;30152;52.066;5.358;2022-08-30T07:47:34;7.70;;;2.70;;
44446;SDS011;30152;52.066;5.358;2022-08-30T07:50:00;9.25;;;2.70;;
44446;SDS011;30152;52.066;5.358;2022-08-30T07:52:26;6.65;;;2.50;;
44446;SDS011;30152;52.066;5.358;2022-08-30T07:54:56;7.63;;;1.98;;
44446;SDS011;30152;52.066;5.358;2022-08-30T07:57:22;5.65;;;2.30;;
44446;SDS011;30152;52.066;5.358;2022-08-30T07:59:48;4.93;;;1.90;;
44446;SDS011;30152;52.066;5.358;2022-08-30T08:02:14;5.00;;;1.70;;
44446;SDS011;30152;52.066;5.358;2022-08-30T08:04:40;4.28;;;1.60;;
44446;SDS011;30152;52.066;5.358;2022-08-30T08:07:07;9.13;;;2.15;;
44446;SDS011;30152;52.066;5.358;2022-08-30T08:09:33;5.07;;;1.55;;
44446;SDS011;30152;52.066;5.358;2022-08-30T08:12:00;4.47;;;1.35;;
44446;SDS011;30152;52.066;5.358;2022-08-30T08:14:26;6.82;;;1.67;;
44446;SDS011;30152;52.066;5.358;2022-08-30T08:16:52;4.85;;;1.50;;
44446;SDS011;30152;52.066;5.358;2022-08-30T08:19:18;6.32;;;1.25;;
44446;SDS011;30152;52.066;5.358;2022-08-30T08:21:44;4.28;;;1.40;;
44446;SDS011;30152;52.066;5.358;2022-08-30T08:24:10;6.25;;;1.35;;
44446;SDS011;30152;52.066;5.358;2022-08-30T08:26:37;5.22;;;1.40;;
44446;SDS011;30152;52.066;5.358;2022-08-30T08:29:04;5.32;;;1.33;;
44446;SDS011;30152;52.066;5.358;2022-08-30T08:31:30;3.85;;;1.08;;
44446;SDS011;30152;52.066;5.358;2022-08-30T08:33:56;5.60;;;1.60;;
44446;SDS011;30152;52.066;5.358;2022-08-30T08:36:24;6.70;;;1.33;;
44446;SDS011;30152;52.066;5.358;2022-08-30T08:38:49;4.10;;;1.20;;
44446;SDS011;30152;52.066;5.358;2022-08-30T08:44:02;6.70;;;1.77;;
44446;SDS011;30152;52.066;5.358;2022-08-30T08:48:57;4.82;;;1.48;;
44446;SDS011;30152;52.066;5.358;2022-08-30T08:51:27;6.25;;;1.50;;
44446;SDS011;30152;52.066;5.358;2022-08-30T08:54:14;5.15;;;1.30;;
44446;SDS011;30152;52.066;5.358;2022-08-30T08:56:41;6.93;;;1.20;;
44446;SDS011;30152;52.066;5.358;2022-08-30T08:59:07;6.32;;;1.35;;
44446;SDS011;30152;52.066;5.358;2022-08-30T09:01:34;5.28;;;1.20;;
44446;SDS011;30152;52.066;5.358;2022-08-30T09:04:04;8.52;;;1.45;;
44446;SDS011;30152;52.066;5.358;2022-08-30T09:06:47;5.03;;;1.10;;
44446;SDS011;30152;52.066;5.358;2022-08-30T09:09:16;3.58;;;1.20;;
44446;SDS011;30152;52.066;5.358;2022-08-30T09:11:43;5.85;;;1.42;;
44446;SDS011;30152;52.066;5.358;2022-08-30T09:14:13;4.70;;;1.50;;
44446;SDS011;30152;52.066;5.358;2022-08-30T09:22:01;6.88;;;1.27;;
44446;SDS011;30152;52.066;5.358;2022-08-30T09:24:37;4.50;;;1.27;;
44446;SDS011;30152;52.066;5.358;2022-08-30T09:29:52;6.75;;;1.50;;
44446;SDS011;30152;52.066;5.358;2022-08-30T09:32:22;5.82;;;1.45;;
44446;SDS011;30152;52.066;5.358;2022-08-30T09:34:48;3.70;;;1.13;;
44446;SDS011;30152;52.066;5.358;2022-08-30T09:37:30;5.97;;;1.10;;
44446;SDS011;30152;52.066;5.358;2022-08-30T09:39:56;5.65;;;1.48;;
44446;SDS011;30152;52.066;5.358;2022-08-30T09:42:24;3.92;;;1.17;;
44446;SDS011;30152;52.066;5.358;2022-08-30T09:44:51;4.28;;;1.17;;
44446;SDS011;30152;52.066;5.358;2022-08-30T09:47:20;5.55;;;1.50;;
44446;SDS011;30152;52.066;5.358;2022-08-30T09:49:50;4.65;;;1.27;;
44446;SDS011;30152;52.066;5.358;2022-08-30T09:55:00;3.70;;;1.10;;
44446;SDS011;30152;52.066;5.358;2022-08-30T09:57:35;2.63;;;0.98;;
44446;SDS011;30152;52.066;5.358;2022-08-30T10:05:02;5.82;;;1.35;;
44446;SDS011;30152;52.066;5.358;2022-08-30T10:07:33;4.55;;;1.10;;
44446;SDS011;30152;52.066;5.358;2022-08-30T10:12:55;5.43;;;1.15;;
44446;SDS011;30152;52.066;5.358;2022-08-30T10:15:25;5.13;;;1.25;;
44446;SDS011;30152;52.066;5.358;2022-08-30T10:20:30;6.35;;;1.30;;
44446;SDS011;30152;52.066;5.358;2022-08-30T10:23:04;7.60;;;1.20;;
44446;SDS011;30152;52.066;5.358;2022-08-30T10:25:40;5.38;;;1.10;;
44446;SDS011;30152;52.066;5.358;2022-08-30T10:30:35;7.10;;;1.25;;
44446;SDS011;30152;52.066;5.358;2022-08-30T10:35:50;3.75;;;0.82;;
44446;SDS011;30152;52.066;5.358;2022-08-30T10:40:48;5.10;;;1.17;;
44446;SDS011;30152;52.066;5.358;2022-08-30T10:43:40;4.63;;;1.10;;
44446;SDS011;30152;52.066;5.358;2022-08-30T10:46:10;7.65;;;1.08;;
44446;SDS011;30152;52.066;5.358;2022-08-30T10:48:40;3.63;;;1.00;;
44446;SDS011;30152;52.066;5.358;2022-08-30T10:56:36;5.60;;;1.30;;
44446;SDS011;30152;52.066;5.358;2022-08-30T10:59:05;6.80;;;1.48;;
44446;SDS011;30152;52.066;5.358;2022-08-30T11:04:42;7.20;;;1.33;;
44446;SDS011;30152;52.066;5.358;2022-08-30T11:14:37;7.10;;;1.27;;
44446;SDS011;30152;52.066;5.358;2022-08-30T11:17:03;3.75;;;1.20;;
44446;SDS011;30152;52.066;5.358;2022-08-30T11:19:36;6.68;;;1.50;;
44446;SDS011;30152;52.066;5.358;2022-08-30T11:22:12;4.38;;;1.15;;
44446;SDS011;30152;52.066;5.358;2022-08-30T11:24:59;5.50;;;1.00;;
44446;SDS011;30152;52.066;5.358;2022-08-30T11:31:02;3.47;;;0.88;;
44446;SDS011;30152;52.066;5.358;2022-08-30T11:35:37;4.25;;;1.02;;
44446;SDS011;30152;52.066;5.358;2022-08-30T11:38:17;2.90;;;0.93;;
44446;SDS011;30152;52.066;5.358;2022-08-30T11:40:45;4.28;;;1.15;;
44446;SDS011;30152;52.066;5.358;2022-08-30T11:46:17;3.45;;;0.90;;
44446;SDS011;30152;52.066;5.358;2022-08-30T11:48:45;4.15;;;0.90;;
44446;SDS011;30152;52.066;5.358;2022-08-30T11:51:19;3.17;;;0.90;;
44446;SDS011;30152;52.066;5.358;2022-08-30T11:53:51;4.25;;;1.38;;
44446;SDS011;30152;52.066;5.358;2022-08-30T11:56:24;3.85;;;1.20;;
44446;SDS011;30152;52.066;5.358;2022-08-30T11:58:56;4.38;;;1.20;;
44446;SDS011;30152;52.066;5.358;2022-08-30T12:09:04;4.22;;;1.23;;
44446;SDS011;30152;52.066;5.358;2022-08-30T12:13:56;5.45;;;1.08;;
44446;SDS011;30152;52.066;5.358;2022-08-30T12:16:22;3.88;;;1.30;;
44446;SDS011;30152;52.066;5.358;2022-08-30T12:19:09;4.00;;;0.90;;
44446;SDS011;30152;52.066;5.358;2022-08-30T12:21:36;4.88;;;1.05;;
44446;SDS011;30152;52.066;5.358;2022-08-30T12:26:33;5.32;;;1.20;;
44446;SDS011;30152;52.066;5.358;2022-08-30T12:29:10;5.57;;;1.00;;
44446;SDS011;30152;52.066;5.358;2022-08-30T12:34:14;3.55;;;1.05;;
44446;SDS011;30152;52.066;5.358;2022-08-30T12:36:50;3.67;;;1.02;;
44446;SDS011;30152;52.066;5.358;2022-08-30T12:39:21;5.13;;;1.08;;
44446;SDS011;30152;52.066;5.358;2022-08-30T12:41:47;5.47;;;1.00;;
44446;SDS011;30152;52.066;5.358;2022-08-30T12:44:15;4.30;;;1.00;;
44446;SDS011;30152;52.066;5.358;2022-08-30T12:46:42;6.28;;;1.35;;
44446;SDS011;30152;52.066;5.358;2022-08-30T12:49:08;9.18;;;1.10;;
44446;SDS011;30152;52.066;5.358;2022-08-30T12:51:39;7.32;;;1.00;;
44446;SDS011;30152;52.066;5.358;2022-08-30T12:54:13;4.55;;;1.10;;
44446;SDS011;30152;52.066;5.358;2022-08-30T13:02:14;7.65;;;1.02;;
44446;SDS011;30152;52.066;5.358;2022-08-30T13:04:41;3.90;;;1.00;;
44446;SDS011;30152;52.066;5.358;2022-08-30T13:07:07;7.38;;;1.02;;
44446;SDS011;30152;52.066;5.358;2022-08-30T13:09:40;5.80;;;1.20;;
44446;SDS011;30152;52.066;5.358;2022-08-30T13:12:08;3.88;;;1.02;;
44446;SDS011;30152;52.066;5.358;2022-08-30T13:14:43;4.10;;;0.93;;
44446;SDS011;30152;52.066;5.358;2022-08-30T13:17:11;3.53;;;1.08;;
44446;SDS011;30152;52.066;5.358;2022-08-30T13:19:56;4.20;;;1.38;;
44446;SDS011;30152;52.066;5.358;2022-08-30T13:22:23;4.93;;;0.80;;
44446;SDS011;30152;52.066;5.358;2022-08-30T13:24:50;5.53;;;1.20;;
44446;SDS011;30152;52.066;5.358;2022-08-30T13:27:16;4.50;;;1.60;;
44446;SDS011;30152;52.066;5.358;2022-08-30T13:29:42;5.32;;;1.30;;
44446;SDS011;30152;52.066;5.358;2022-08-30T13:32:08;5.93;;;1.63;;
44446;SDS011;30152;52.066;5.358;2022-08-30T13:34:34;3.85;;;1.40;;
44446;SDS011;30152;52.066;5.358;2022-08-30T13:37:00;5.32;;;1.70;;
44446;SDS011;30152;52.066;5.358;2022-08-30T13:39:26;7.03;;;1.40;;
44446;SDS011;30152;52.066;5.358;2022-08-30T13:41:52;5.18;;;1.67;;
44446;SDS011;30152;52.066;5.358;2022-08-30T13:44:18;6.60;;;1.30;;
44446;SDS011;30152;52.066;5.358;2022-08-30T13:46:46;5.82;;;1.27;;
44446;SDS011;30152;52.066;5.358;2022-08-30T13:49:17;4.57;;;1.42;;
44446;SDS011;30152;52.066;5.358;2022-08-30T13:51:43;4.68;;;1.48;;
44446;SDS011;30152;52.066;5.358;2022-08-30T13:54:09;5.80;;;1.42;;
44446;SDS011;30152;52.066;5.358;2022-08-30T13:56:35;5.90;;;2.15;;
44446;SDS011;30152;52.066;5.358;2022-08-30T13:59:01;5.45;;;1.75;;
44446;SDS011;30152;52.066;5.358;2022-08-30T14:01:28;6.72;;;2.05;;
44446;SDS011;30152;52.066;5.358;2022-08-30T14:03:54;7.43;;;1.80;;
44446;SDS011;30152;52.066;5.358;2022-08-30T14:06:20;5.65;;;2.03;;
44446;SDS011;30152;52.066;5.358;2022-08-30T14:08:45;6.57;;;2.15;;
44446;SDS011;30152;52.066;5.358;2022-08-30T14:11:12;7.47;;;2.42;;
44446;SDS011;30152;52.066;5.358;2022-08-30T14:13:40;8.75;;;2.38;;
44446;SDS011;30152;52.066;5.358;2022-08-30T14:16:07;6.28;;;2.28;;
44446;SDS011;30152;52.066;5.358;2022-08-30T14:18:33;7.38;;;2.10;;
44446;SDS011;30152;52.066;5.358;2022-08-30T14:20:59;4.85;;;1.98;;
44446;SDS011;30152;52.066;5.358;2022-08-30T14:23:25;9.52;;;2.33;;
44446;SDS011;30152;52.066;5.358;2022-08-30T14:25:51;8.05;;;2.25;;
44446;SDS011;30152;52.066;5.358;2022-08-30T14:28:17;8.45;;;2.13;;
44446;SDS011;30152;52.066;5.358;2022-08-30T14:30:43;5.97;;;2.13;;
44446;SDS011;30152;52.066;5.358;2022-08-30T14:33:09;7.38;;;2.03;;
44446;SDS011;30152;52.066;5.358;2022-08-30T14:35:35;7.05;;;1.92;;
44446;SDS011;30152;52.066;5.358;2022-08-30T14:38:01;8.80;;;1.98;;
44446;SDS011;30152;52.066;5.358;2022-08-30T14:40:27;9.18;;;1.50;;
44446;SDS011;30152;52.066;5.358;2022-08-30T14:42:53;5.85;;;1.38;;
44446;SDS011;30152;52.066;5.358;2022-08-30T14:45:19;7.10;;;1.55;;
44446;SDS011;30152;52.066;5.358;2022-08-30T14:47:45;5.65;;;1.33;;
44446;SDS011;30152;52.066;5.358;2022-08-30T14:50:11;6.63;;;1.52;;
44446;SDS011;30152;52.066;5.358;2022-08-30T14:52:37;7.47;;;1.70;;
44446;SDS011;30152;52.066;5.358;2022-08-30T14:55:05;7.90;;;1.50;;
44446;SDS011;30152;52.066;5.358;2022-08-30T14:57:31;5.60;;;1.60;;
44446;SDS011;30152;52.066;5.358;2022-08-30T14:59:57;2.97;;;1.00;;
44446;SDS011;30152;52.066;5.358;2022-08-30T15:02:23;6.32;;;1.35;;
44446;SDS011;30152;52.066;5.358;2022-08-30T15:04:49;4.13;;;1.10;;
44446;SDS011;30152;52.066;5.358;2022-08-30T15:07:15;4.25;;;1.10;;
44446;SDS011;30152;52.066;5.358;2022-08-30T15:09:41;7.95;;;1.40;;
44446;SDS011;30152;52.066;5.358;2022-08-30T15:12:08;4.57;;;1.10;;
44446;SDS011;30152;52.066;5.358;2022-08-30T15:14:34;4.72;;;1.13;;
44446;SDS011;30152;52.066;5.358;2022-08-30T15:17:00;4.22;;;1.38;;
44446;SDS011;30152;52.066;5.358;2022-08-30T15:19:26;4.00;;;1.15;;
44446;SDS011;30152;52.066;5.358;2022-08-30T15:21:53;6.07;;;1.15;;
44446;SDS011;30152;52.066;5.358;2022-08-30T15:24:20;6.53;;;1.08;;
44446;SDS011;30152;52.066;5.358;2022-08-30T15:26:46;5.57;;;1.10;;
44446;SDS011;30152;52.066;5.358;2022-08-30T15:29:14;5.85;;;1.48;;
44446;SDS011;30152;52.066;5.358;2022-08-30T15:31:40;6.15;;;1.20;;
44446;SDS011;30152;52.066;5.358;2022-08-30T15:34:06;5.97;;;1.45;;
44446;SDS011;30152;52.066;5.358;2022-08-30T15:36:33;5.93;;;1.05;;
44446;SDS011;30152;52.066;5.358;2022-08-30T15:38:59;3.55;;;1.13;;
44446;SDS011;30152;52.066;5.358;2022-08-30T15:41:25;4.20;;;1.40;;
44446;SDS011;30152;52.066;5.358;2022-08-30T15:43:51;8.93;;;1.30;;
44446;SDS011;30152;52.066;5.358;2022-08-30T15:46:25;5.95;;;1.30;;
44446;SDS011;30152;52.066;5.358;2022-08-30T15:48:53;4.13;;;1.13;;
44446;SDS011;30152;52.066;5.358;2022-08-30T15:51:21;2.75;;;0.93;;
44446;SDS011;30152;52.066;5.358;2022-08-30T15:53:47;6.20;;;1.20;;
44446;SDS011;30152;52.066;5.358;2022-08-30T15:56:13;5.35;;;1.10;;
44446;SDS011;30152;52.066;5.358;2022-08-30T15:58:40;6.88;;;1.40;;
44446;SDS011;30152;52.066;5.358;2022-08-30T16:01:06;3.45;;;1.05;;
44446;SDS011;30152;52.066;5.358;2022-08-30T16:03:33;4.75;;;1.30;;
44446;SDS011;30152;52.066;5.358;2022-08-30T16:05:59;4.03;;;0.90;;
44446;SDS011;30152;52.066;5.358;2022-08-30T16:08:25;8.98;;;1.40;;
44446;SDS011;30152;52.066;5.358;2022-08-30T16:10:52;4.38;;;1.40;;
44446;SDS011;30152;52.066;5.358;2022-08-30T16:13:17;4.40;;;1.30;;
44446;SDS011;30152;52.066;5.358;2022-08-30T16:15:43;6.00;;;1.20;;
44446;SDS011;30152;52.066;5.358;2022-08-30T16:18:10;3.95;;;1.00;;
44446;SDS011;30152;52.066;5.358;2022-08-30T16:20:38;4.22;;;1.33;;
44446;SDS011;30152;52.066;5.358;2022-08-30T16:23:04;4.10;;;1.23;;
44446;SDS011;30152;52.066;5.358;2022-08-30T16:25:30;7.57;;;1.27;;
44446;SDS011;30152;52.066;5.358;2022-08-30T16:27:56;4.70;;;1.50;;
44446;SDS011;30152;52.066;5.358;2022-08-30T16:30:22;5.57;;;1.30;;
44446;SDS011;30152;52.066;5.358;2022-08-30T16:32:48;4.53;;;1.30;;
44446;SDS011;30152;52.066;5.358;2022-08-30T16:35:14;8.50;;;1.52;;
44446;SDS011;30152;52.066;5.358;2022-08-30T16:37:40;5.82;;;1.20;;
44446;SDS011;30152;52.066;5.358;2022-08-30T16:40:06;5.57;;;1.30;;
44446;SDS011;30152;52.066;5.358;2022-08-30T16:42:32;4.47;;;1.30;;
44446;SDS011;30152;52.066;5.358;2022-08-30T16:44:58;7.10;;;1.15;;
44446;SDS011;30152;52.066;5.358;2022-08-30T16:47:24;6.82;;;1.08;;
44446;SDS011;30152;52.066;5.358;2022-08-30T16:49:50;5.57;;;1.10;;
44446;SDS011;30152;52.066;5.358;2022-08-30T16:52:16;4.90;;;0.90;;
44446;SDS011;30152;52.066;5.358;2022-08-30T16:54:42;5.78;;;1.20;;
44446;SDS011;30152;52.066;5.358;2022-08-30T16:57:08;5.30;;;1.20;;
44446;SDS011;30152;52.066;5.358;2022-08-30T16:59:35;5.50;;;1.20;;
44446;SDS011;30152;52.066;5.358;2022-08-30T17:02:01;6.18;;;1.30;;
44446;SDS011;30152;52.066;5.358;2022-08-30T17:04:26;3.70;;;1.10;;
44446;SDS011;30152;52.066;5.358;2022-08-30T17:06:52;4.00;;;1.20;;
44446;SDS011;30152;52.066;5.358;2022-08-30T17:09:18;3.00;;;0.93;;
44446;SDS011;30152;52.066;5.358;2022-08-30T17:11:45;4.35;;;1.20;;
44446;SDS011;30152;52.066;5.358;2022-08-30T17:14:11;4.82;;;1.10;;
44446;SDS011;30152;52.066;5.358;2022-08-30T17:16:37;3.88;;;1.17;;
44446;SDS011;30152;52.066;5.358;2022-08-30T17:19:03;3.88;;;1.00;;
44446;SDS011;30152;52.066;5.358;2022-08-30T17:21:30;4.47;;;1.17;;
44446;SDS011;30152;52.066;5.358;2022-08-30T17:23:57;3.10;;;0.80;;
44446;SDS011;30152;52.066;5.358;2022-08-30T17:26:23;3.67;;;1.10;;
44446;SDS011;30152;52.066;5.358;2022-08-30T17:28:49;5.93;;;1.17;;
44446;SDS011;30152;52.066;5.358;2022-08-30T17:31:15;4.57;;;1.00;;
44446;SDS011;30152;52.066;5.358;2022-08-30T17:33:41;4.32;;;1.00;;
44446;SDS011;30152;52.066;5.358;2022-08-30T17:36:08;6.60;;;1.30;;
44446;SDS011;30152;52.066;5.358;2022-08-30T17:38:34;7.10;;;2.03;;
44446;SDS011;30152;52.066;5.358;2022-08-30T17:41:04;6.45;;;1.23;;
44446;SDS011;30152;52.066;5.358;2022-08-30T17:43:30;3.60;;;1.05;;
44446;SDS011;30152;52.066;5.358;2022-08-30T17:46:03;5.88;;;1.02;;
44446;SDS011;30152;52.066;5.358;2022-08-30T17:48:29;5.20;;;1.63;;
44446;SDS011;30152;52.066;5.358;2022-08-30T17:50:56;3.10;;;1.00;;
44446;SDS011;30152;52.066;5.358;2022-08-30T17:53:21;5.18;;;1.10;;
44446;SDS011;30152;52.066;5.358;2022-08-30T17:55:48;6.07;;;1.48;;
44446;SDS011;30152;52.066;5.358;2022-08-30T17:58:14;3.67;;;0.98;;
44446;SDS011;30152;52.066;5.358;2022-08-30T18:00:40;4.47;;;1.10;;
44446;SDS011;30152;52.066;5.358;2022-08-30T18:03:07;5.47;;;1.33;;
44446;SDS011;30152;52.066;5.358;2022-08-30T18:05:33;4.07;;;0.90;;
44446;SDS011;30152;52.066;5.358;2022-08-30T18:07:59;4.38;;;1.10;;
44446;SDS011;30152;52.066;5.358;2022-08-30T18:10:25;3.95;;;1.30;;
44446;SDS011;30152;52.066;5.358;2022-08-30T18:12:51;5.90;;;1.23;;
44446;SDS011;30152;52.066;5.358;2022-08-30T18:15:17;6.35;;;1.20;;
44446;SDS011;30152;52.066;5.358;2022-08-30T18:17:43;9.75;;;1.55;;
44446;SDS011;30152;52.066;5.358;2022-08-30T18:20:11;3.65;;;1.10;;
44446;SDS011;30152;52.066;5.358;2022-08-30T18:22:37;5.50;;;1.25;;
44446;SDS011;30152;52.066;5.358;2022-08-30T18:25:04;4.95;;;1.30;;
44446;SDS011;30152;52.066;5.358;2022-08-30T18:27:30;3.88;;;0.95;;
44446;SDS011;30152;52.066;5.358;2022-08-30T18:29:56;3.22;;;1.02;;
44446;SDS011;30152;52.066;5.358;2022-08-30T18:32:22;9.15;;;1.30;;
44446;SDS011;30152;52.066;5.358;2022-08-30T18:34:48;4.70;;;1.27;;
44446;SDS011;30152;52.066;5.358;2022-08-30T18:37:14;5.80;;;1.15;;
44446;SDS011;30152;52.066;5.358;2022-08-30T18:39:40;4.65;;;1.13;;
44446;SDS011;30152;52.066;5.358;2022-08-30T18:42:06;5.57;;;1.35;;
44446;SDS011;30152;52.066;5.358;2022-08-30T18:44:33;7.20;;;1.20;;
44446;SDS011;30152;52.066;5.358;2022-08-30T18:46:59;4.32;;;1.30;;
44446;SDS011;30152;52.066;5.358;2022-08-30T18:49:27;4.03;;;1.20;;
44446;SDS011;30152;52.066;5.358;2022-08-30T18:51:53;4.97;;;1.42;;
44446;SDS011;30152;52.066;5.358;2022-08-30T18:54:19;4.50;;;1.08;;
44446;SDS011;30152;52.066;5.358;2022-08-30T18:56:45;4.28;;;1.08;;
44446;SDS011;30152;52.066;5.358;2022-08-30T18:59:11;4.90;;;1.40;;
44446;SDS011;30152;52.066;5.358;2022-08-30T19:01:36;3.75;;;1.05;;
44446;SDS011;30152;52.066;5.358;2022-08-30T19:04:02;5.07;;;1.17;;
44446;SDS011;30152;52.066;5.358;2022-08-30T19:06:28;4.65;;;1.13;;
44446;SDS011;30152;52.066;5.358;2022-08-30T19:08:54;5.93;;;1.40;;
44446;SDS011;30152;52.066;5.358;2022-08-30T19:11:20;5.20;;;1.48;;
44446;SDS011;30152;52.066;5.358;2022-08-30T19:13:46;5.78;;;1.60;;
44446;SDS011;30152;52.066;5.358;2022-08-30T19:16:12;8.05;;;1.63;;
44446;SDS011;30152;52.066;5.358;2022-08-30T19:18:38;8.95;;;1.58;;
44446;SDS011;30152;52.066;5.358;2022-08-30T19:21:04;7.63;;;1.35;;
44446;SDS011;30152;52.066;5.358;2022-08-30T19:23:31;4.57;;;1.10;;
44446;SDS011;30152;52.066;5.358;2022-08-30T19:26:00;7.47;;;1.60;;
44446;SDS011;30152;52.066;5.358;2022-08-30T19:28:26;5.13;;;1.08;;
44446;SDS011;30152;52.066;5.358;2022-08-30T19:30:52;4.25;;;1.05;;
44446;SDS011;30152;52.066;5.358;2022-08-30T19:33:17;7.47;;;1.45;;
44446;SDS011;30152;52.066;5.358;2022-08-30T19:35:44;5.68;;;1.38;;
44446;SDS011;30152;52.066;5.358;2022-08-30T19:38:10;4.80;;;1.65;;
44446;SDS011;30152;52.066;5.358;2022-08-30T19:40:36;5.00;;;1.88;;
44446;SDS011;30152;52.066;5.358;2022-08-30T19:43:02;9.65;;;1.85;;
44446;SDS011;30152;52.066;5.358;2022-08-30T19:45:29;7.05;;;1.48;;
44446;SDS011;30152;52.066;5.358;2022-08-30T19:47:55;5.72;;;1.30;;
44446;SDS011;30152;52.066;5.358;2022-08-30T19:50:22;5.22;;;1.67;;
44446;SDS011;30152;52.066;5.358;2022-08-30T19:52:48;4.82;;;1.50;;
44446;SDS011;30152;52.066;5.358;2022-08-30T19:55:14;6.78;;;1.25;;
44446;SDS011;30152;52.066;5.358;2022-08-30T19:57:40;6.05;;;1.77;;
44446;SDS011;30152;52.066;5.358;2022-08-30T20:00:07;6.95;;;2.33;;
44446;SDS011;30152;52.066;5.358;2022-08-30T20:02:34;7.43;;;1.48;;
44446;SDS011;30152;52.066;5.358;2022-08-30T20:05:00;4.20;;;1.35;;
44446;SDS011;30152;52.066;5.358;2022-08-30T20:07:28;7.50;;;1.65;;
44446;SDS011;30152;52.066;5.358;2022-08-30T20:09:57;6.40;;;1.40;;
44446;SDS011;30152;52.066;5.358;2022-08-30T20:12:24;4.75;;;1.50;;
44446;SDS011;30152;52.066;5.358;2022-08-30T20:14:50;6.28;;;1.42;;
44446;SDS011;30152;52.066;5.358;2022-08-30T20:17:16;5.53;;;1.40;;
44446;SDS011;30152;52.066;5.358;2022-08-30T20:19:42;4.30;;;1.40;;
44446;SDS011;30152;52.066;5.358;2022-08-30T20:22:09;10.07;;;1.80;;
44446;SDS011;30152;52.066;5.358;2022-08-30T20:24:36;4.80;;;1.63;;
44446;SDS011;30152;52.066;5.358;2022-08-30T20:27:02;6.00;;;1.80;;
44446;SDS011;30152;52.066;5.358;2022-08-30T20:29:28;5.85;;;1.55;;
44446;SDS011;30152;52.066;5.358;2022-08-30T20:31:54;8.38;;;1.65;;
44446;SDS011;30152;52.066;5.358;2022-08-30T20:34:20;5.38;;;1.30;;
44446;SDS011;30152;52.066;5.358;2022-08-30T20:36:51;6.68;;;1.85;;
44446;SDS011;30152;52.066;5.358;2022-08-30T20:39:17;5.10;;;1.80;;
44446;SDS011;30152;52.066;5.358;2022-08-30T20:41:43;5.90;;;2.05;;
44446;SDS011;30152;52.066;5.358;2022-08-30T20:44:09;4.15;;;1.75;;
44446;SDS011;30152;52.066;5.358;2022-08-30T20:46:36;5.60;;;2.08;;
44446;SDS011;30152;52.066;5.358;2022-08-30T20:49:02;5.70;;;1.50;;
44446;SDS011;30152;52.066;5.358;2022-08-30T20:51:28;4.25;;;1.70;;
44446;SDS011;30152;52.066;5.358;2022-08-30T20:53:55;6.68;;;1.95;;
44446;SDS011;30152;52.066;5.358;2022-08-30T20:56:21;9.52;;;2.20;;
44446;SDS011;30152;52.066;5.358;2022-08-30T20:58:49;7.35;;;2.15;;
44446;SDS011;30152;52.066;5.358;2022-08-30T21:01:15;5.78;;;2.05;;
44446;SDS011;30152;52.066;5.358;2022-08-30T21:03:42;6.03;;;1.85;;
44446;SDS011;30152;52.066;5.358;2022-08-30T21:06:08;5.43;;;1.73;;
44446;SDS011;30152;52.066;5.358;2022-08-30T21:08:35;7.22;;;2.00;;
44446;SDS011;30152;52.066;5.358;2022-08-30T21:11:01;8.00;;;2.60;;
44446;SDS011;30152;52.066;5.358;2022-08-30T21:13:27;7.40;;;1.92;;
44446;SDS011;30152;52.066;5.358;2022-08-30T21:15:54;6.80;;;2.13;;
44446;SDS011;30152;52.066;5.358;2022-08-30T21:18:20;9.18;;;2.33;;
44446;SDS011;30152;52.066;5.358;2022-08-30T21:20:46;6.82;;;2.92;;
44446;SDS011;30152;52.066;5.358;2022-08-30T21:23:12;5.82;;;2.30;;
44446;SDS011;30152;52.066;5.358;2022-08-30T21:25:42;5.93;;;2.20;;
44446;SDS011;30152;52.066;5.358;2022-08-30T21:28:08;6.30;;;2.10;;
44446;SDS011;30152;52.066;5.358;2022-08-30T21:30:34;5.85;;;2.10;;
44446;SDS011;30152;52.066;5.358;2022-08-30T21:33:01;5.78;;;2.67;;
44446;SDS011;30152;52.066;5.358;2022-08-30T21:35:28;7.13;;;2.53;;
44446;SDS011;30152;52.066;5.358;2022-08-30T21:38:13;7.05;;;2.42;;
44446;SDS011;30152;52.066;5.358;2022-08-30T21:40:39;7.38;;;2.17;;
44446;SDS011;30152;52.066;5.358;2022-08-30T21:43:05;6.40;;;2.42;;
44446;SDS011;30152;52.066;5.358;2022-08-30T21:45:35;5.32;;;2.20;;
44446;SDS011;30152;52.066;5.358;2022-08-30T21:48:01;6.55;;;2.20;;
